createdAt,value
2018-11-20T00:01:43.656Z,1.40
2018-11-20T00:04:30.226Z,1.10
2018-11-20T00:07:16.896Z,0.90
2018-11-20T00:10:03.536Z,1.57
2018-11-20T00:12:50.178Z,1.43
2018-11-20T00:15:33.847Z,1.20
2018-11-20T00:18:20.479Z,1.30
2018-11-20T00:24:02.795Z,1.20
2018-11-20T00:26:49.373Z,1.97
2018-11-20T00:29:35.998Z,1.20
2018-11-20T00:32:22.582Z,1.87
2018-11-20T00:35:09.191Z,1.43
2018-11-20T00:37:55.811Z,1.47
2018-11-20T00:43:34.594Z,2.70
2018-11-20T00:46:21.235Z,1.93
2018-11-20T00:49:07.839Z,1.70
2018-11-20T00:51:54.440Z,2.00
2018-11-20T00:54:41.028Z,1.80
2018-11-20T00:57:27.659Z,2.10
2018-11-20T01:00:14.415Z,3.33
2018-11-20T01:03:01.039Z,2.27
2018-11-20T01:05:47.666Z,2.07
2018-11-20T01:08:34.336Z,2.17
2018-11-20T01:11:20.983Z,1.83
2018-11-20T01:17:05.283Z,2.10
2018-11-20T01:19:51.933Z,2.40
2018-11-20T01:22:38.621Z,1.90
2018-11-20T01:25:25.444Z,1.93
2018-11-20T01:28:05.965Z,2.83
2018-11-20T01:30:52.531Z,2.60
2018-11-20T01:33:39.133Z,2.60
2018-11-20T01:36:25.773Z,2.17
2018-11-20T01:39:12.351Z,2.50
2018-11-20T01:44:58.702Z,3.40
2018-11-20T01:47:45.380Z,2.60
2018-11-20T01:50:31.983Z,2.30
2018-11-20T01:53:18.617Z,2.50
2018-11-20T01:56:05.254Z,2.60
2018-11-20T01:58:51.879Z,2.93
2018-11-20T02:01:38.499Z,3.40
2018-11-20T02:04:25.182Z,2.50
2018-11-20T02:07:11.832Z,2.53
2018-11-20T02:09:58.440Z,2.63
2018-11-20T02:12:45.045Z,2.80
2018-11-20T02:15:31.672Z,2.53
2018-11-20T02:18:20.603Z,2.63
2018-11-20T02:21:07.166Z,2.50
2018-11-20T02:23:46.197Z,2.93
2018-11-20T02:26:32.852Z,1.77
2018-11-20T02:29:19.495Z,2.60
2018-11-20T02:32:06.146Z,2.60
2018-11-20T02:34:52.767Z,1.90
2018-11-20T02:37:39.353Z,2.37
2018-11-20T02:43:14.424Z,1.53
2018-11-20T02:46:01.055Z,2.13
2018-11-20T02:48:47.709Z,3.50
2018-11-20T02:51:34.449Z,1.93
2018-11-20T02:54:21.031Z,3.83
2018-11-20T02:57:07.630Z,2.87
2018-11-20T02:59:54.321Z,3.20
2018-11-20T03:02:40.930Z,2.80
2018-11-20T03:05:27.572Z,3.07
2018-11-20T03:08:14.268Z,3.70
2018-11-20T03:11:00.920Z,2.93
2018-11-20T03:13:47.530Z,2.10
2018-11-20T03:16:34.160Z,2.80
2018-11-20T03:19:20.812Z,4.13
2018-11-20T03:22:07.431Z,3.80
2018-11-20T03:24:54.021Z,3.63
2018-11-20T03:27:40.663Z,3.37
2018-11-20T03:30:46.549Z,4.50
2018-11-20T03:33:33.190Z,3.70
2018-11-20T03:36:19.891Z,4.30
2018-11-20T03:39:06.405Z,3.83
2018-11-20T03:41:53.041Z,3.30
2018-11-20T03:47:25.863Z,4.20
2018-11-20T03:50:07.125Z,4.67
2018-11-20T03:52:53.733Z,4.93
2018-11-20T03:55:40.323Z,4.27
2018-11-20T04:01:08.454Z,4.90
2018-11-20T04:03:55.041Z,4.57
2018-11-20T04:06:42.370Z,4.70
2018-11-20T04:09:29.071Z,2.93
2018-11-20T04:12:15.759Z,5.43
2018-11-20T04:15:02.345Z,4.53
2018-11-20T04:17:48.982Z,3.87
2018-11-20T04:20:24.675Z,4.83
2018-11-20T04:23:11.356Z,5.00
2018-11-20T04:25:58.083Z,4.77
2018-11-20T04:28:33.884Z,3.70
2018-11-20T04:31:39.761Z,5.33
2018-11-20T04:34:26.367Z,4.27
2018-11-20T04:37:14.222Z,4.90
2018-11-20T04:40:00.810Z,5.17
2018-11-20T04:42:47.440Z,4.23
2018-11-20T04:45:34.053Z,4.97
2018-11-20T04:48:20.686Z,4.37
2018-11-20T04:51:07.391Z,4.23
2018-11-20T04:53:54.068Z,4.60
2018-11-20T04:56:40.777Z,3.40
2018-11-20T04:59:27.464Z,3.70
2018-11-20T05:02:14.131Z,4.30
2018-11-20T05:05:00.989Z,3.30
2018-11-20T05:07:47.710Z,3.40
2018-11-20T05:10:34.357Z,4.00
2018-11-20T05:13:21.089Z,3.40
2018-11-20T05:16:07.681Z,3.50
2018-11-20T05:18:54.341Z,4.30
2018-11-20T05:21:40.948Z,3.43
2018-11-20T05:24:27.610Z,4.27
2018-11-20T05:27:14.217Z,3.50
2018-11-20T05:30:00.871Z,4.43
2018-11-20T05:32:47.443Z,4.93
2018-11-20T05:35:34.094Z,3.77
2018-11-20T05:38:08.943Z,5.00
2018-11-20T05:40:55.657Z,4.07
2018-11-20T05:43:42.240Z,5.17
2018-11-20T05:46:28.909Z,5.00
2018-11-20T05:49:15.489Z,4.43
2018-11-20T05:52:02.116Z,3.77
2018-11-20T05:54:48.870Z,4.40
2018-11-20T05:57:35.681Z,3.73
2018-11-20T06:00:22.346Z,4.13
2018-11-20T06:03:00.251Z,3.03
2018-11-20T06:05:46.967Z,4.53
2018-11-20T06:08:33.596Z,3.60
2018-11-20T06:11:20.186Z,4.50
2018-11-20T06:14:06.847Z,4.17
2018-11-20T06:16:53.463Z,4.97
2018-11-20T06:19:40.128Z,3.63
2018-11-20T06:22:26.740Z,3.90
2018-11-20T06:25:13.413Z,4.73
2018-11-20T06:28:00.026Z,4.70
2018-11-20T06:30:46.740Z,2.90
2018-11-20T06:33:33.362Z,2.70
2018-11-20T06:36:20.520Z,2.90
2018-11-20T06:39:07.233Z,3.00
2018-11-20T06:41:53.857Z,3.33
2018-11-20T06:44:40.526Z,3.50
2018-11-20T06:47:27.226Z,3.30
2018-11-20T06:50:13.837Z,2.57
2018-11-20T06:52:57.849Z,3.77
2018-11-20T06:55:44.564Z,4.40
2018-11-20T06:58:36.457Z,2.17
2018-11-20T07:01:23.119Z,2.90
2018-11-20T07:04:29.009Z,3.23
2018-11-20T07:07:15.740Z,3.10
2018-11-20T07:10:02.388Z,3.73
2018-11-20T07:12:49.047Z,3.60
2018-11-20T07:15:36.030Z,3.67
2018-11-20T07:18:22.462Z,3.47
2018-11-20T07:21:09.094Z,3.93
2018-11-20T07:23:56.818Z,3.30
2018-11-20T07:26:43.519Z,4.60
2018-11-20T07:29:30.214Z,3.67
2018-11-20T07:32:17.258Z,3.13
2018-11-20T07:35:04.116Z,4.40
2018-11-20T07:37:50.682Z,4.10
2018-11-20T07:40:37.323Z,3.80
2018-11-20T07:43:24.034Z,3.37
2018-11-20T07:49:09.699Z,3.20
2018-11-20T07:51:56.320Z,4.33
2018-11-20T07:54:42.944Z,3.53
2018-11-20T07:57:29.701Z,3.63
2018-11-20T08:00:16.348Z,3.70
2018-11-20T08:03:03.039Z,3.10
2018-11-20T08:05:50.054Z,3.60
2018-11-20T08:08:36.753Z,4.40
2018-11-20T08:11:23.716Z,4.53
2018-11-20T08:14:10.491Z,3.90
2018-11-20T08:16:57.113Z,4.90
2018-11-20T08:19:43.714Z,4.80
2018-11-20T08:22:30.479Z,3.50
2018-11-20T08:25:17.222Z,4.57
2018-11-20T08:28:04.087Z,3.97
2018-11-20T08:30:50.804Z,4.40
2018-11-20T08:33:37.530Z,3.40
2018-11-20T08:36:25.303Z,3.17
2018-11-20T08:39:11.971Z,4.57
2018-11-20T08:41:58.662Z,3.90
2018-11-20T08:44:45.426Z,2.80
2018-11-20T08:47:32.270Z,4.73
2018-11-20T08:53:44.163Z,4.00
2018-11-20T08:56:31.924Z,2.97
2018-11-20T08:59:18.563Z,3.93
2018-11-20T09:02:05.729Z,3.57
2018-11-20T09:04:52.296Z,4.07
2018-11-20T09:07:39.763Z,3.90
2018-11-20T09:10:28.730Z,2.63
2018-11-20T09:13:15.422Z,3.63
2018-11-20T09:16:02.021Z,2.90
2018-11-20T09:18:48.714Z,4.07
2018-11-20T09:21:35.361Z,4.23
2018-11-20T09:24:21.980Z,4.43
2018-11-20T09:27:08.620Z,2.70
2018-11-20T09:29:55.233Z,4.57
2018-11-20T09:32:41.868Z,3.30
2018-11-20T09:35:28.712Z,4.13
2018-11-20T09:38:15.184Z,4.40
2018-11-20T09:41:02.584Z,2.90
2018-11-20T09:43:51.402Z,3.60
2018-11-20T09:46:38.186Z,4.50
2018-11-20T09:49:24.921Z,4.40
2018-11-20T09:52:11.646Z,4.80
2018-11-20T09:54:58.202Z,3.90
2018-11-20T09:57:38.580Z,3.23
2018-11-20T10:00:25.702Z,2.60
2018-11-20T10:03:12.341Z,4.50
2018-11-20T10:05:59.014Z,3.33
2018-11-20T10:08:45.756Z,4.50
2018-11-20T10:11:32.441Z,4.37
2018-11-20T10:14:19.277Z,4.30
2018-11-20T10:17:05.697Z,3.77
2018-11-20T10:19:52.412Z,3.57
2018-11-20T10:22:39.017Z,3.07
2018-11-20T10:25:25.734Z,4.40
2018-11-20T10:28:12.279Z,3.10
2018-11-20T10:30:58.899Z,4.07
2018-11-20T10:33:45.531Z,4.00
2018-11-20T10:36:32.231Z,4.90
2018-11-20T10:39:18.828Z,2.60
2018-11-20T10:42:05.863Z,3.10
2018-11-20T10:44:52.538Z,4.60
2018-11-20T10:47:39.143Z,4.17
2018-11-20T10:50:26.114Z,4.07
2018-11-20T10:53:12.796Z,4.67
2018-11-20T10:55:59.443Z,3.97
2018-11-20T10:58:46.090Z,2.70
2018-11-20T11:01:32.699Z,5.20
2018-11-20T11:04:19.493Z,3.90
2018-11-20T11:07:07.328Z,3.63
2018-11-20T11:09:53.841Z,4.37
2018-11-20T11:12:40.533Z,2.70
2018-11-20T11:15:27.125Z,2.53
2018-11-20T11:18:13.782Z,3.63
2018-11-20T11:21:19.802Z,3.23
2018-11-20T11:24:06.418Z,2.40
2018-11-20T11:26:53.143Z,5.43
2018-11-20T11:29:59.302Z,3.90
2018-11-20T11:32:45.927Z,2.67
2018-11-20T11:35:33.134Z,2.83
2018-11-20T11:38:19.782Z,5.03
2018-11-20T11:41:06.426Z,3.63
2018-11-20T11:43:53.159Z,2.50
2018-11-20T11:46:39.747Z,3.23
2018-11-20T11:49:26.414Z,2.63
2018-11-20T11:52:13.998Z,3.63
2018-11-20T11:55:00.740Z,3.40
2018-11-20T11:57:47.319Z,4.63
2018-11-20T12:00:34.022Z,3.80
2018-11-20T12:03:20.640Z,4.00
2018-11-20T12:06:07.289Z,3.57
2018-11-20T12:08:53.950Z,2.93
2018-11-20T12:11:40.593Z,3.83
2018-11-20T12:14:27.167Z,3.83
2018-11-20T12:17:04.959Z,2.90
2018-11-20T12:19:51.646Z,3.30
2018-11-20T12:22:38.545Z,3.20
2018-11-20T12:25:25.596Z,3.10
2018-11-20T12:28:14.702Z,3.30
2018-11-20T12:30:59.337Z,4.30
2018-11-20T12:33:46.031Z,3.30
2018-11-20T12:36:32.952Z,3.33
2018-11-20T12:39:19.835Z,4.07
2018-11-20T12:42:06.230Z,3.73
2018-11-20T12:44:54.386Z,2.40
2018-11-20T12:47:40.544Z,3.87
2018-11-20T12:50:28.075Z,3.63
2018-11-20T12:53:13.526Z,3.17
2018-11-20T12:56:00.155Z,3.90
2018-11-20T12:58:46.942Z,4.30
2018-11-20T13:01:35.069Z,3.87
2018-11-20T13:04:20.370Z,3.33
2018-11-20T13:07:07.250Z,3.90
2018-11-20T13:09:53.910Z,4.20
2018-11-20T13:12:40.580Z,2.77
2018-11-20T13:15:27.347Z,3.97
2018-11-20T13:18:14.104Z,2.53
2018-11-20T13:21:00.710Z,4.67
2018-11-20T13:23:39.210Z,4.37
2018-11-20T13:26:25.832Z,4.23
2018-11-20T13:29:12.463Z,5.20
2018-11-20T13:32:00.083Z,3.93
2018-11-20T13:34:47.819Z,3.87
2018-11-20T13:37:33.735Z,4.20
2018-11-20T13:40:20.172Z,5.07
2018-11-20T13:43:07.110Z,3.90
2018-11-20T13:45:53.779Z,3.97
2018-11-20T13:48:40.383Z,3.73
2018-11-20T13:51:27.171Z,4.53
2018-11-20T13:54:13.771Z,4.47
2018-11-20T13:57:00.395Z,3.73
2018-11-20T13:59:47.147Z,4.03
2018-11-20T14:02:33.766Z,3.87
2018-11-20T14:05:20.428Z,4.70
2018-11-20T14:08:07.802Z,2.97
2018-11-20T14:10:54.438Z,1.90
2018-11-20T14:13:41.125Z,5.20
2018-11-20T14:16:27.787Z,3.00
2018-11-20T14:19:18.507Z,4.60
2018-11-20T14:22:03.329Z,2.13
2018-11-20T14:24:50.013Z,4.10
2018-11-20T14:27:36.623Z,3.70
2018-11-20T14:30:24.491Z,4.57
2018-11-20T14:33:11.195Z,4.07
2018-11-20T14:35:57.826Z,4.77
2018-11-20T14:38:44.538Z,4.53
2018-11-20T14:41:31.269Z,3.80
2018-11-20T14:44:17.887Z,5.30
2018-11-20T14:47:04.574Z,5.00
2018-11-20T14:49:51.200Z,3.27
2018-11-20T14:52:37.908Z,3.37
2018-11-20T14:55:24.735Z,4.30
2018-11-20T14:58:11.418Z,4.17
2018-11-20T15:00:58.032Z,5.83
2018-11-20T15:03:44.775Z,3.90
2018-11-20T15:06:31.350Z,5.23
2018-11-20T15:09:18.057Z,4.83
2018-11-20T15:12:04.760Z,5.20
2018-11-20T15:14:51.367Z,4.93
2018-11-20T15:17:38.575Z,4.40
2018-11-20T15:20:26.017Z,2.73
2018-11-20T15:23:12.768Z,5.17
2018-11-20T15:26:04.032Z,2.60
2018-11-20T15:28:46.112Z,4.60
2018-11-20T15:31:32.853Z,3.90
2018-11-20T15:34:19.455Z,5.03
2018-11-20T15:37:06.140Z,3.97
2018-11-20T15:39:52.776Z,3.67
2018-11-20T15:42:39.484Z,4.53
2018-11-20T15:45:17.955Z,4.13
2018-11-20T15:48:04.595Z,4.53
2018-11-20T15:50:51.304Z,4.20
2018-11-20T15:53:38.078Z,4.60
2018-11-20T15:56:24.697Z,4.53
2018-11-20T15:59:11.378Z,5.07
2018-11-20T16:01:57.996Z,3.67
2018-11-20T16:04:44.721Z,4.00
2018-11-20T16:07:31.333Z,4.40
2018-11-20T16:10:17.956Z,4.33
2018-11-20T16:13:04.543Z,4.30
2018-11-20T16:15:51.294Z,3.30
2018-11-20T16:18:37.974Z,4.60
2018-11-20T16:21:24.917Z,4.43
2018-11-20T16:24:11.629Z,3.90
2018-11-20T16:26:58.278Z,3.23
2018-11-20T16:29:44.922Z,3.87
2018-11-20T16:32:32.216Z,2.73
2018-11-20T16:35:18.807Z,3.60
2018-11-20T16:38:05.471Z,2.60
2018-11-20T16:41:12.625Z,3.87
2018-11-20T16:43:55.349Z,3.97
2018-11-20T16:46:42.209Z,3.90
2018-11-20T16:49:28.918Z,2.00
2018-11-20T16:52:15.909Z,3.20
2018-11-20T16:55:02.848Z,3.80
2018-11-20T16:57:53.521Z,2.93
2018-11-20T17:00:40.225Z,1.70
2018-11-20T17:03:27.152Z,3.47
2018-11-20T17:06:13.877Z,4.03
2018-11-20T17:09:00.584Z,1.20
2018-11-20T17:11:47.252Z,4.50
2018-11-20T17:14:34.516Z,2.10
2018-11-20T17:17:21.209Z,1.60
2018-11-20T17:20:07.919Z,3.40
2018-11-20T17:22:54.671Z,3.93
2018-11-20T17:25:41.522Z,4.43
2018-11-20T17:28:28.129Z,2.10
2018-11-20T17:31:15.819Z,2.27
2018-11-20T17:34:02.539Z,4.00
2018-11-20T17:36:49.979Z,3.80
2018-11-20T17:42:27.547Z,4.60
2018-11-20T17:45:11.469Z,4.87
2018-11-20T17:50:50.563Z,4.00
2018-11-20T17:53:37.260Z,3.60
2018-11-20T17:56:24.279Z,4.03
2018-11-20T17:59:10.855Z,4.30
2018-11-20T18:01:57.520Z,5.20
2018-11-20T18:04:44.154Z,4.90
2018-11-20T18:07:30.759Z,5.67
2018-11-20T18:13:23.464Z,4.60
2018-11-20T18:16:10.050Z,5.00
2018-11-20T18:18:56.897Z,2.90
2018-11-20T18:21:43.537Z,4.17
2018-11-20T18:24:30.336Z,4.93
2018-11-20T18:27:19.009Z,4.87
2018-11-20T18:32:53.124Z,6.00
2018-11-20T18:35:39.729Z,5.53
2018-11-20T18:38:26.453Z,3.10
2018-11-20T18:41:13.049Z,3.50
2018-11-20T18:44:00.274Z,6.10
2018-11-20T18:46:46.874Z,5.10
2018-11-20T18:49:33.505Z,5.00
2018-11-20T18:52:20.498Z,4.00
2018-11-20T18:58:03.417Z,5.97
2018-11-20T19:00:50.044Z,4.43
2018-11-20T19:03:36.950Z,3.60
2018-11-20T19:06:23.705Z,4.00
2018-11-20T19:09:10.798Z,5.00
2018-11-20T19:12:03.658Z,5.37
2018-11-20T19:14:45.391Z,5.70
2018-11-20T19:17:31.055Z,5.00
2018-11-20T19:20:17.746Z,6.13
2018-11-20T19:23:04.399Z,6.80
2018-11-20T19:25:51.040Z,4.50
2018-11-20T19:28:37.691Z,5.20
2018-11-20T19:31:24.818Z,5.80
2018-11-20T19:34:11.512Z,4.63
2018-11-20T19:36:58.322Z,5.33
2018-11-20T19:39:46.244Z,5.33
2018-11-20T19:42:33.015Z,4.30
2018-11-20T19:45:19.693Z,3.90
2018-11-20T19:48:06.386Z,3.67
2018-11-20T19:50:57.814Z,6.40
2018-11-20T19:53:40.534Z,5.33
2018-11-20T19:56:27.190Z,3.07
2018-11-20T19:59:14.078Z,6.43
2018-11-20T20:02:00.719Z,4.90
2018-11-20T20:04:47.330Z,4.03
2018-11-20T20:07:33.938Z,6.43
2018-11-20T20:10:21.510Z,7.00
2018-11-20T20:13:07.325Z,6.57
2018-11-20T20:15:53.953Z,6.70
2018-11-20T20:21:36.897Z,6.07
2018-11-20T20:24:23.608Z,5.97
2018-11-20T20:27:10.256Z,4.80
2018-11-20T20:29:57.408Z,5.93
2018-11-20T20:32:44.088Z,6.23
2018-11-20T20:35:30.800Z,6.90
2018-11-20T20:38:17.454Z,5.43
2018-11-20T20:41:04.099Z,6.50
2018-11-20T20:43:50.715Z,6.23
2018-11-20T20:46:37.334Z,5.63
2018-11-20T20:49:24.019Z,3.77
2018-11-20T20:52:10.623Z,7.53
2018-11-20T20:54:57.246Z,5.27
2018-11-20T20:57:43.893Z,6.47
2018-11-20T21:00:31.278Z,6.47
2018-11-20T21:03:17.921Z,6.80
2018-11-20T21:06:00.873Z,5.90
2018-11-20T21:08:47.536Z,5.53
2018-11-20T21:11:24.512Z,4.80
2018-11-20T21:14:03.290Z,9.00
2018-11-20T21:16:49.908Z,6.10
2018-11-20T21:19:36.501Z,7.53
2018-11-20T21:22:23.196Z,4.90
2018-11-20T21:25:09.839Z,7.60
2018-11-20T21:27:56.586Z,6.93
2018-11-20T21:30:43.467Z,8.17
2018-11-20T21:33:29.895Z,6.43
2018-11-20T21:36:16.491Z,7.00
2018-11-20T21:39:03.139Z,6.27
2018-11-20T21:41:49.734Z,8.00
2018-11-20T21:44:36.416Z,4.13
2018-11-20T21:47:24.029Z,5.23
2018-11-20T21:50:10.672Z,6.77
2018-11-20T21:52:57.335Z,6.23
2018-11-20T21:55:43.971Z,7.50
2018-11-20T21:58:30.581Z,7.00
2018-11-20T22:01:18.742Z,8.37
2018-11-20T22:04:05.427Z,7.97
2018-11-20T22:06:52.143Z,6.30
2018-11-20T22:09:38.747Z,6.03
2018-11-20T22:12:25.452Z,8.93
2018-11-20T22:15:12.135Z,5.67
2018-11-20T22:17:58.747Z,7.50
2018-11-20T22:20:45.353Z,7.70
2018-11-20T22:23:23.079Z,8.73
2018-11-20T22:26:09.774Z,5.90
2018-11-20T22:28:56.354Z,6.70
2018-11-20T22:31:43.024Z,8.23
2018-11-20T22:34:29.683Z,4.77
2018-11-20T22:37:16.293Z,8.43
2018-11-20T22:40:03.039Z,6.70
2018-11-20T22:42:49.673Z,6.60
2018-11-20T22:45:36.295Z,8.13
2018-11-20T22:48:22.976Z,8.20
2018-11-20T22:51:09.636Z,8.30
2018-11-20T22:53:56.262Z,9.47
2018-11-20T22:56:42.915Z,5.10
2018-11-20T22:59:29.503Z,8.57
2018-11-20T23:02:16.259Z,6.77
2018-11-20T23:05:02.259Z,8.43
2018-11-20T23:07:48.895Z,7.30
2018-11-20T23:10:20.055Z,6.90
2018-11-20T23:12:47.772Z,10.37
2018-11-20T23:15:15.966Z,6.90
2018-11-20T23:20:30.185Z,7.93
2018-11-20T23:22:57.668Z,8.00
2018-11-20T23:25:25.216Z,7.80
2018-11-20T23:30:32.463Z,9.30
2018-11-20T23:35:46.762Z,5.97
2018-11-20T23:43:40.568Z,5.10
2018-11-20T23:48:54.740Z,8.07
2018-11-20T23:54:17.579Z,7.33
2018-11-20T23:59:32.084Z,9.80
